JRA weather

West 30th St. Heliport
New York, New York, United States

Public forecast

Using degrees Fahrenheit for public forecast. Weather courtesy of forecast.io.

Closest aviation weather report (METAR) to West 30th St. Heliport

Closest report is Teterboro Airport, 6.2 nm (11.6 km) NNW. Retrieved 2020/07/14 04:51 UTC (53 minutes ago):

KTEB 140451Z 32005KT 10SM CLR 23/15 A2985 RMK AO2 SLP108 T02330150 403060211

Closest aviation forecast (TAF) to West 30th St. Heliport

Closest forecast is Teterboro Airport, 6.2 nm (11.6 km) NNW. Retrieved 2020-07-14 00:22 UTC (5 hours ago):

TAF KTEB 132320Z 1400/1506 27007KT P6SM SCT050 FM140300 32004KT P6SM SCT060 FM142100 34007KT P6SM BKN070 FM150000 VRB04KT P6SM SCT060